createdAt,value
2022-10-23T00:00:15.734Z,103123.16
2022-10-23T00:02:42.404Z,103111.28
2022-10-23T00:05:09.222Z,103154.41
2022-10-23T00:07:35.703Z,103171.94
2022-10-23T00:10:02.340Z,103151.06
2022-10-23T00:12:28.774Z,103195.00
2022-10-23T00:14:55.195Z,103215.28
2022-10-23T00:17:21.558Z,103237.44
2022-10-23T00:19:47.926Z,103241.72
2022-10-23T00:22:14.302Z,103240.53
2022-10-23T00:24:40.675Z,103271.47
2022-10-23T00:27:07.077Z,103240.66
2022-10-23T00:29:33.499Z,103260.31
2022-10-23T00:31:59.912Z,103308.25
2022-10-23T00:34:26.300Z,103271.66
2022-10-23T00:36:52.719Z,103283.47
2022-10-23T00:39:19.132Z,103298.38
2022-10-23T00:41:45.525Z,103341.69
2022-10-23T00:44:18.003Z,103354.03
2022-10-23T00:46:44.589Z,103367.53
2022-10-23T00:51:50.085Z,103386.28
2022-10-23T00:54:26.622Z,103380.84
2022-10-23T00:56:56.130Z,103388.84
2022-10-23T00:59:23.082Z,103391.78
2022-10-23T01:01:49.757Z,103368.91
2022-10-23T01:04:16.509Z,103380.94
2022-10-23T01:07:07.012Z,103398.06
2022-10-23T01:09:53.538Z,103392.00
2022-10-23T01:12:30.637Z,103410.47
2022-10-23T01:15:31.996Z,103383.47
2022-10-23T01:18:07.547Z,103312.81
2022-10-23T01:20:40.989Z,103308.59
2022-10-23T01:23:35.295Z,103305.53
2022-10-23T01:26:32.709Z,103384.59
2022-10-23T01:29:14.268Z,103399.50
2022-10-23T01:31:49.170Z,103398.66
2022-10-23T01:34:27.697Z,103414.97
2022-10-23T01:36:55.437Z,103420.75
2022-10-23T01:39:31.043Z,103403.88
2022-10-23T01:42:08.500Z,103359.22
2022-10-23T01:44:41.789Z,103383.38
2022-10-23T01:47:12.218Z,103318.53
2022-10-23T01:49:41.990Z,103305.56
2022-10-23T01:52:12.985Z,103349.72
2022-10-23T01:54:42.946Z,103305.97
2022-10-23T01:57:13.003Z,103310.13
2022-10-23T01:59:44.342Z,103244.91
2022-10-23T02:02:13.327Z,103281.50
2022-10-23T02:04:50.811Z,103291.16
2022-10-23T02:07:17.293Z,103302.31
2022-10-23T02:09:43.748Z,103298.97
2022-10-23T02:12:45.485Z,103313.72
2022-10-23T02:15:20.103Z,103265.75
2022-10-23T02:18:13.155Z,103340.78
2022-10-23T02:20:46.442Z,103284.50
2022-10-23T02:23:27.255Z,103267.38
2022-10-23T02:26:00.308Z,103308.38
2022-10-23T02:28:34.897Z,103297.31
2022-10-23T02:31:04.314Z,103275.50
2022-10-23T02:33:32.645Z,103248.84
2022-10-23T02:35:59.051Z,103249.63
2022-10-23T02:38:36.006Z,103234.59
2022-10-23T02:41:17.344Z,103181.09
2022-10-23T02:43:57.392Z,103211.84
2022-10-23T02:46:54.444Z,103184.59
2022-10-23T02:50:00.193Z,103188.91
2022-10-23T02:52:38.470Z,103161.94
2022-10-23T02:55:22.782Z,103158.28
2022-10-23T02:58:07.323Z,103113.34
2022-10-23T03:00:37.402Z,103093.44
2022-10-23T03:03:14.802Z,103132.66
2022-10-23T03:05:42.065Z,103089.38
2022-10-23T03:08:10.325Z,103075.13
2022-10-23T03:10:37.136Z,103071.75
2022-10-23T03:13:04.008Z,103086.81
2022-10-23T03:15:30.700Z,103043.81
2022-10-23T03:17:57.135Z,103092.19
2022-10-23T03:20:23.548Z,103039.72
2022-10-23T03:22:49.972Z,103091.56
2022-10-23T03:25:16.376Z,103050.88
2022-10-23T03:27:42.763Z,103087.16
2022-10-23T03:30:10.027Z,103024.66
2022-10-23T03:32:36.605Z,103047.47
2022-10-23T03:35:04.031Z,103063.59
2022-10-23T03:37:30.415Z,103041.75
2022-10-23T03:39:56.818Z,103055.09
2022-10-23T03:42:23.220Z,103051.84
2022-10-23T03:44:49.597Z,102995.59
2022-10-23T03:47:15.986Z,103026.59
2022-10-23T03:49:42.416Z,102999.06
2022-10-23T03:52:08.892Z,102979.25
2022-10-23T03:54:35.697Z,102939.78
2022-10-23T03:57:02.379Z,102929.28
2022-10-23T03:59:29.370Z,102987.63
2022-10-23T04:01:55.996Z,102926.34
2022-10-23T04:04:22.511Z,102988.75
2022-10-23T04:06:48.906Z,102936.16
2022-10-23T04:09:15.834Z,102948.78
2022-10-23T04:11:42.289Z,102933.38
2022-10-23T04:14:12.104Z,102926.69
2022-10-23T04:16:38.811Z,102919.47
2022-10-23T04:19:05.257Z,102865.78
2022-10-23T04:21:31.693Z,102858.22
2022-10-23T04:23:58.062Z,102934.34
2022-10-23T04:26:24.555Z,102905.72
2022-10-23T04:28:50.980Z,102907.69
2022-10-23T04:31:17.379Z,102889.00
2022-10-23T04:33:43.879Z,102896.72
2022-10-23T04:36:10.421Z,102901.94
2022-10-23T04:38:36.855Z,102838.59
2022-10-23T04:41:03.527Z,102840.72
2022-10-23T04:43:29.946Z,102915.22
2022-10-23T04:45:56.319Z,102864.63
2022-10-23T04:48:25.587Z,102921.75
2022-10-23T04:51:05.243Z,102928.47
2022-10-23T04:53:32.062Z,102928.47
2022-10-23T04:55:59.836Z,102880.63
2022-10-23T04:58:27.924Z,102887.84
2022-10-23T05:00:54.514Z,102932.88
2022-10-23T05:03:23.895Z,102892.38
2022-10-23T05:05:53.469Z,102892.88
2022-10-23T05:08:20.121Z,102885.31
2022-10-23T05:10:48.937Z,102942.69
2022-10-23T05:13:17.245Z,102959.06
2022-10-23T05:18:31.063Z,102978.56
2022-10-23T05:21:02.273Z,102980.66
2022-10-23T05:23:31.963Z,102933.28
2022-10-23T05:25:58.382Z,103012.44
2022-10-23T05:28:24.822Z,103027.31
2022-10-23T05:30:51.313Z,102974.69
2022-10-23T05:33:17.924Z,103032.25
2022-10-23T05:35:44.924Z,103019.81
2022-10-23T05:38:12.969Z,102991.25
2022-10-23T05:43:10.723Z,102997.00
2022-10-23T05:45:37.140Z,103035.00
2022-10-23T05:48:11.071Z,103063.84
2022-10-23T05:50:43.330Z,103043.22
2022-10-23T05:53:10.745Z,103072.50
2022-10-23T05:55:37.233Z,103034.97
2022-10-23T05:58:04.288Z,103032.22
2022-10-23T06:00:30.847Z,103069.00
2022-10-23T06:03:00.042Z,103019.16
2022-10-23T06:05:26.597Z,102992.41
2022-10-23T06:07:57.406Z,103013.03
2022-10-23T06:10:23.824Z,103031.84
2022-10-23T06:12:51.156Z,103064.22
2022-10-23T06:15:17.816Z,103053.94
2022-10-23T06:17:44.466Z,103038.03
2022-10-23T06:20:11.346Z,103032.81
2022-10-23T06:22:37.726Z,103011.16
2022-10-23T06:25:04.494Z,103029.00
2022-10-23T06:27:30.860Z,102967.06
2022-10-23T06:29:57.237Z,103008.34
2022-10-23T06:32:23.629Z,102979.84
2022-10-23T06:34:49.987Z,102960.50
2022-10-23T06:37:16.393Z,103023.28
2022-10-23T06:39:42.819Z,103010.81
2022-10-23T06:42:09.223Z,103019.69
2022-10-23T06:44:35.593Z,103018.84
2022-10-23T06:47:01.975Z,102980.00
2022-10-23T06:49:31.442Z,103029.84
2022-10-23T06:51:57.854Z,103015.78
2022-10-23T06:54:24.237Z,102969.06
2022-10-23T06:56:51.187Z,102993.97
2022-10-23T06:59:17.616Z,102939.28
2022-10-23T07:01:44.170Z,102924.38
2022-10-23T07:04:11.138Z,102979.25
2022-10-23T07:06:37.497Z,102966.66
2022-10-23T07:09:04.024Z,102929.97
2022-10-23T07:11:30.422Z,102894.25
2022-10-23T07:13:56.832Z,102931.25
2022-10-23T07:16:24.002Z,102919.63
2022-10-23T07:18:55.727Z,102893.72
2022-10-23T07:21:22.160Z,102890.28
2022-10-23T07:23:48.523Z,102821.25
2022-10-23T07:26:16.416Z,102873.41
2022-10-23T07:28:45.237Z,102841.28
2022-10-23T07:31:12.471Z,102859.31
2022-10-23T07:33:38.946Z,102847.16
2022-10-23T07:36:07.535Z,102800.91
2022-10-23T07:38:34.971Z,102841.59
2022-10-23T07:41:01.802Z,102820.78
2022-10-23T07:43:28.414Z,102783.63
2022-10-23T07:45:55.536Z,102812.34
2022-10-23T07:48:22.384Z,102782.38
2022-10-23T07:50:48.792Z,102748.09
2022-10-23T07:53:24.241Z,102753.81
2022-10-23T07:55:55.586Z,102725.66
2022-10-23T07:58:22.461Z,102730.09
2022-10-23T08:01:03.692Z,102714.25
2022-10-23T08:03:32.701Z,102663.28
2022-10-23T08:06:00.026Z,102733.81
2022-10-23T08:08:26.561Z,102690.38
2022-10-23T08:10:54.590Z,102677.91
2022-10-23T08:13:22.051Z,102694.47
2022-10-23T08:15:50.469Z,102611.78
2022-10-23T08:18:17.401Z,102585.94
2022-10-23T08:20:46.017Z,102617.94
2022-10-23T08:23:13.757Z,102605.97
2022-10-23T08:25:40.760Z,102586.53
2022-10-23T08:28:08.791Z,102578.94
2022-10-23T08:30:36.558Z,102557.66
2022-10-23T08:33:04.549Z,102485.50
2022-10-23T08:35:30.990Z,102474.41
2022-10-23T08:37:57.431Z,102511.50
2022-10-23T08:40:25.152Z,102521.28
2022-10-23T08:43:13.203Z,102490.22
2022-10-23T08:45:45.207Z,102476.03
2022-10-23T08:48:32.978Z,102463.66
2022-10-23T08:51:06.088Z,102406.91
2022-10-23T08:53:53.156Z,102402.00
2022-10-23T08:56:35.000Z,102424.28
2022-10-23T08:59:28.977Z,102410.13
2022-10-23T09:02:10.712Z,102393.00
2022-10-23T09:04:37.573Z,102327.72
2022-10-23T09:07:21.586Z,102355.47
2022-10-23T09:10:06.688Z,102339.75
2022-10-23T09:12:33.238Z,102323.19
2022-10-23T09:15:05.477Z,102242.06
2022-10-23T09:17:34.460Z,102288.50
2022-10-23T09:20:23.743Z,102282.06
2022-10-23T09:22:54.846Z,102218.41
2022-10-23T09:25:27.559Z,102214.09
2022-10-23T09:27:59.054Z,102221.06
2022-10-23T09:30:37.330Z,102171.66
2022-10-23T09:33:27.311Z,102192.75
2022-10-23T09:36:18.303Z,102159.63
2022-10-23T09:38:50.595Z,102160.28
2022-10-23T09:41:36.576Z,102142.59
2022-10-23T09:44:32.918Z,102126.19
2022-10-23T09:47:08.980Z,102104.75
2022-10-23T09:49:35.754Z,102069.56
2022-10-23T09:52:05.016Z,102066.34
2022-10-23T09:54:57.224Z,102027.31
2022-10-23T09:57:41.873Z,101963.81
2022-10-23T10:00:14.630Z,102012.50
2022-10-23T10:02:43.652Z,101929.56
2022-10-23T10:05:31.880Z,101939.41
2022-10-23T10:08:13.623Z,101927.41
2022-10-23T10:10:47.391Z,101899.88
2022-10-23T10:13:32.481Z,101888.25
2022-10-23T10:16:08.649Z,101858.22
2022-10-23T10:18:50.356Z,101857.19
2022-10-23T10:21:27.830Z,101844.78
2022-10-23T10:23:57.261Z,101841.59
2022-10-23T10:26:38.891Z,101844.03
2022-10-23T10:29:27.058Z,101852.09
2022-10-23T10:32:25.890Z,101805.56
2022-10-23T10:35:07.158Z,101818.16
2022-10-23T10:38:14.432Z,101834.91
2022-10-23T10:41:10.224Z,101812.22
2022-10-23T10:44:08.838Z,101798.22
2022-10-23T10:46:47.635Z,101780.50
2022-10-23T10:49:22.897Z,101769.22
2022-10-23T10:51:58.440Z,101771.22
2022-10-23T10:54:31.046Z,101766.38
2022-10-23T10:57:00.164Z,101764.25
2022-10-23T10:59:35.670Z,101744.47
2022-10-23T11:02:19.797Z,101716.66
2022-10-23T11:04:53.025Z,101661.81
2022-10-23T11:07:23.703Z,101729.53
2022-10-23T11:09:50.445Z,101699.47
2022-10-23T11:12:21.645Z,101706.19
2022-10-23T11:14:49.853Z,101658.91
2022-10-23T11:17:21.509Z,101700.13
2022-10-23T11:20:09.060Z,101642.66
2022-10-23T11:22:42.958Z,101679.53
2022-10-23T11:25:34.585Z,101682.44
2022-10-23T11:28:35.557Z,101663.19
2022-10-23T11:31:11.887Z,101662.19
2022-10-23T11:34:13.651Z,101658.25
2022-10-23T11:36:53.574Z,101633.00
2022-10-23T11:39:21.448Z,101625.56
2022-10-23T11:41:59.403Z,101642.22
2022-10-23T11:44:38.020Z,101620.06
2022-10-23T11:47:27.531Z,101625.50
2022-10-23T11:50:09.136Z,101617.09
2022-10-23T11:52:45.528Z,101554.09
2022-10-23T11:55:18.917Z,101560.63
2022-10-23T11:58:05.170Z,101600.34
2022-10-23T12:00:34.028Z,101537.94
2022-10-23T12:03:01.932Z,101542.28
2022-10-23T12:05:34.051Z,101596.47
2022-10-23T12:08:02.410Z,101550.66
2022-10-23T12:10:36.006Z,101569.59
2022-10-23T12:13:05.383Z,101593.72
2022-10-23T12:15:34.630Z,101579.81
2022-10-23T12:18:18.144Z,101577.16
2022-10-23T12:21:01.783Z,101571.97
2022-10-23T12:23:55.644Z,101565.34
2022-10-23T12:26:43.336Z,101535.84
2022-10-23T12:29:34.192Z,101561.28
2022-10-23T12:32:24.176Z,101512.31
2022-10-23T12:35:17.916Z,101557.94
2022-10-23T12:38:01.538Z,101504.97
2022-10-23T12:40:28.351Z,101504.81
2022-10-23T12:42:56.174Z,101539.44
2022-10-23T12:45:26.165Z,101498.03
2022-10-23T12:47:53.790Z,101478.03
2022-10-23T12:50:33.570Z,101536.78
2022-10-23T12:53:03.089Z,101472.53
2022-10-23T12:55:35.119Z,101474.16
2022-10-23T12:58:02.506Z,101501.31
2022-10-23T13:00:28.925Z,101501.19
2022-10-23T13:03:00.785Z,101442.19
2022-10-23T13:05:28.180Z,101485.31
2022-10-23T13:07:56.869Z,101417.97
2022-10-23T13:10:24.522Z,101429.63
2022-10-23T13:12:55.848Z,101485.44
2022-10-23T13:15:23.446Z,101420.28
2022-10-23T13:17:55.927Z,101463.66
2022-10-23T13:20:34.040Z,101459.94
2022-10-23T13:23:12.208Z,101465.75
2022-10-23T13:25:39.979Z,101455.56
2022-10-23T13:28:20.805Z,101443.06
2022-10-23T13:31:01.932Z,101445.16
2022-10-23T13:33:34.769Z,101454.03
2022-10-23T13:36:22.815Z,101430.75
2022-10-23T13:39:11.186Z,101434.13
2022-10-23T13:41:41.875Z,101383.88
2022-10-23T13:44:11.813Z,101394.66
2022-10-23T13:46:38.288Z,101436.31
2022-10-23T13:49:04.750Z,101426.47
2022-10-23T13:51:40.147Z,101410.06
2022-10-23T13:54:16.163Z,101411.19
2022-10-23T13:56:42.649Z,101422.41
2022-10-23T13:59:10.934Z,101383.63
2022-10-23T14:01:38.000Z,101415.44
2022-10-23T14:04:05.643Z,101420.22
2022-10-23T14:06:32.996Z,101410.31
2022-10-23T14:08:59.445Z,101417.91
2022-10-23T14:11:26.395Z,101417.69
2022-10-23T14:13:52.783Z,101407.97
2022-10-23T14:16:20.155Z,101400.38
2022-10-23T14:18:47.156Z,101401.97
2022-10-23T14:21:18.862Z,101397.31
2022-10-23T14:23:46.030Z,101370.56
2022-10-23T14:26:15.605Z,101389.47
2022-10-23T14:28:42.811Z,101390.34
2022-10-23T14:31:12.074Z,101389.72
2022-10-23T14:33:39.557Z,101379.63
2022-10-23T14:36:06.755Z,101383.31
2022-10-23T14:38:33.605Z,101382.66
2022-10-23T14:41:00.242Z,101320.41
2022-10-23T14:43:26.683Z,101374.00
2022-10-23T14:45:53.205Z,101382.66
2022-10-23T14:48:19.669Z,101317.97
2022-10-23T14:50:48.183Z,101369.22
2022-10-23T14:53:15.791Z,101357.28
2022-10-23T14:55:42.190Z,101306.25
2022-10-23T14:58:08.623Z,101296.16
2022-10-23T15:00:35.064Z,101334.47
2022-10-23T15:03:01.483Z,101331.31
2022-10-23T15:05:27.974Z,101267.03
2022-10-23T15:07:55.452Z,101327.31
2022-10-23T15:10:21.888Z,101276.88
2022-10-23T15:12:48.327Z,101313.41
2022-10-23T15:15:14.748Z,101314.66
2022-10-23T15:17:41.191Z,101252.69
2022-10-23T15:20:07.953Z,101300.19
2022-10-23T15:22:34.425Z,101293.56
2022-10-23T15:25:00.829Z,101292.88
2022-10-23T15:27:27.248Z,101241.06
2022-10-23T15:29:53.654Z,101238.13
2022-10-23T15:32:20.071Z,101291.19
2022-10-23T15:34:46.512Z,101291.19
2022-10-23T15:37:12.922Z,101271.34
2022-10-23T15:39:39.398Z,101280.50
2022-10-23T15:42:06.443Z,101281.03
2022-10-23T15:44:33.729Z,101283.53
2022-10-23T15:47:00.416Z,101279.50
2022-10-23T15:49:28.420Z,101273.63
2022-10-23T15:51:55.131Z,101245.50
2022-10-23T15:54:21.833Z,101287.78
2022-10-23T15:56:50.878Z,101268.66
2022-10-23T15:59:18.851Z,101290.50
2022-10-23T16:01:45.416Z,101222.03
2022-10-23T16:04:11.967Z,101235.09
2022-10-23T16:06:38.420Z,101282.00
2022-10-23T16:09:05.297Z,101263.25
2022-10-23T16:11:35.104Z,101271.25
2022-10-23T16:14:01.620Z,101275.91
2022-10-23T16:16:28.417Z,101275.03
2022-10-23T16:18:55.535Z,101257.66
2022-10-23T16:21:24.623Z,101278.78
2022-10-23T16:23:52.119Z,101263.97
2022-10-23T16:26:19.440Z,101255.09
2022-10-23T16:28:47.306Z,101256.38
2022-10-23T16:31:19.982Z,101207.63
2022-10-23T16:33:48.200Z,101253.50
2022-10-23T16:36:14.696Z,101236.44
2022-10-23T16:38:41.114Z,101204.41
2022-10-23T16:41:07.598Z,101197.47
2022-10-23T16:43:34.127Z,101186.28
2022-10-23T16:46:06.292Z,101189.31
2022-10-23T16:48:34.312Z,101232.63
2022-10-23T16:51:04.399Z,101237.91
2022-10-23T16:53:31.270Z,101210.03
2022-10-23T16:55:58.094Z,101193.06
2022-10-23T16:58:26.005Z,101194.66
2022-10-23T17:01:07.073Z,101198.03
2022-10-23T17:03:35.752Z,101161.38
2022-10-23T17:06:06.122Z,101213.41
2022-10-23T17:08:35.288Z,101201.06
2022-10-23T17:11:15.577Z,101198.53
2022-10-23T17:13:46.131Z,101156.38
2022-10-23T17:16:16.420Z,101201.72
2022-10-23T17:18:44.776Z,101204.03
2022-10-23T17:21:13.136Z,101150.81
2022-10-23T17:23:40.011Z,101193.06
2022-10-23T17:26:11.405Z,101188.56
2022-10-23T17:28:38.467Z,101200.09
2022-10-23T17:31:05.244Z,101176.84
2022-10-23T17:33:31.670Z,101121.09
2022-10-23T17:36:01.694Z,101109.72
2022-10-23T17:38:28.417Z,101144.44
2022-10-23T17:40:54.830Z,101085.25
2022-10-23T17:43:21.312Z,101070.06
2022-10-23T17:45:47.767Z,101171.69
2022-10-23T17:48:14.267Z,101139.72
2022-10-23T17:50:41.182Z,101130.19
2022-10-23T17:53:07.938Z,101096.63
2022-10-23T17:55:41.630Z,101141.06
2022-10-23T17:58:08.738Z,101077.19
2022-10-23T18:00:36.807Z,101128.66
2022-10-23T18:03:04.445Z,101061.44
2022-10-23T18:05:32.478Z,101122.91
2022-10-23T18:07:59.548Z,101147.59
2022-10-23T18:10:26.118Z,101118.03
2022-10-23T18:12:52.547Z,101149.50
2022-10-23T18:15:18.957Z,101169.09
2022-10-23T18:17:45.850Z,101141.53
2022-10-23T18:20:12.741Z,101093.84
2022-10-23T18:22:39.147Z,101074.03
2022-10-23T18:25:06.128Z,101105.94
2022-10-23T18:27:32.672Z,101084.44
2022-10-23T18:29:59.113Z,101024.84
2022-10-23T18:32:25.483Z,100994.94
2022-10-23T18:34:51.881Z,100992.56
2022-10-23T18:37:18.354Z,101038.28
2022-10-23T18:39:44.823Z,101079.97
2022-10-23T18:42:11.226Z,101066.41
2022-10-23T18:44:37.772Z,101132.59
2022-10-23T18:47:04.284Z,101144.59
2022-10-23T18:49:30.769Z,101144.03
2022-10-23T18:51:57.395Z,101100.22
2022-10-23T18:54:23.817Z,101163.53
2022-10-23T18:56:50.371Z,101158.97
2022-10-23T18:59:19.977Z,101136.47
2022-10-23T19:01:46.664Z,101197.97
2022-10-23T19:04:13.592Z,101215.63
2022-10-23T19:06:40.004Z,101175.59
2022-10-23T19:09:08.817Z,101190.63
2022-10-23T19:11:36.281Z,101218.78
2022-10-23T19:14:03.175Z,101220.78
2022-10-23T19:16:43.865Z,101188.41
2022-10-23T19:19:19.494Z,101243.00
2022-10-23T19:21:47.256Z,101225.25
2022-10-23T19:24:19.069Z,101242.47
2022-10-23T19:26:46.024Z,101251.53
2022-10-23T19:29:18.297Z,101257.81
2022-10-23T19:31:47.102Z,101266.66
2022-10-23T19:34:13.501Z,101193.09
2022-10-23T19:36:40.014Z,101265.38
2022-10-23T19:39:06.399Z,101218.75
2022-10-23T19:41:32.930Z,101218.41
2022-10-23T19:43:59.376Z,101249.66
2022-10-23T19:46:25.830Z,101241.16
2022-10-23T19:48:52.269Z,101242.19
2022-10-23T19:51:18.770Z,101166.53
2022-10-23T19:53:45.245Z,101196.66
2022-10-23T19:56:12.295Z,101248.75
2022-10-23T19:58:39.400Z,101198.25
2022-10-23T20:01:10.335Z,101246.22
2022-10-23T20:03:37.757Z,101225.03
2022-10-23T20:06:04.277Z,101228.44
2022-10-23T20:08:32.777Z,101218.97
2022-10-23T20:11:01.616Z,101233.50
2022-10-23T20:13:28.121Z,101225.91
2022-10-23T20:15:54.571Z,101204.34
2022-10-23T20:18:21.034Z,101232.66
2022-10-23T20:20:47.483Z,101240.53
2022-10-23T20:23:13.913Z,101171.38
2022-10-23T20:25:40.377Z,101213.44
2022-10-23T20:28:09.092Z,101240.59
2022-10-23T20:30:42.168Z,101171.16
2022-10-23T20:33:09.053Z,101198.78
2022-10-23T20:35:43.640Z,101216.78
2022-10-23T20:38:10.272Z,101160.84
2022-10-23T20:40:37.124Z,101165.22
2022-10-23T20:43:03.987Z,101218.13
2022-10-23T20:45:30.430Z,101224.34
2022-10-23T20:47:57.366Z,101151.63
2022-10-23T20:50:23.777Z,101214.94
2022-10-23T20:52:50.629Z,101167.31
2022-10-23T20:55:17.193Z,101209.47
2022-10-23T20:57:43.879Z,101159.06
2022-10-23T21:00:11.071Z,101229.75
2022-10-23T21:02:37.546Z,101144.97
2022-10-23T21:05:04.351Z,101153.13
2022-10-23T21:07:30.783Z,101214.97
2022-10-23T21:09:57.198Z,101159.84
2022-10-23T21:12:23.576Z,101215.19
2022-10-23T21:14:49.958Z,101162.31
2022-10-23T21:17:16.370Z,101164.13
2022-10-23T21:19:42.804Z,101195.97
2022-10-23T21:22:09.165Z,101194.06
2022-10-23T21:24:35.640Z,101190.44
2022-10-23T21:27:02.054Z,101118.66
2022-10-23T21:29:28.536Z,101155.88
2022-10-23T21:31:59.890Z,101121.72
2022-10-23T21:34:27.182Z,101133.69
2022-10-23T21:37:12.967Z,101079.09
2022-10-23T21:39:40.637Z,101111.59
2022-10-23T21:42:07.052Z,101099.84
2022-10-23T21:44:33.479Z,101047.88
2022-10-23T21:46:59.876Z,101080.63
2022-10-23T21:49:26.371Z,101083.81
2022-10-23T21:51:52.753Z,101021.22
2022-10-23T21:54:19.163Z,101074.31
2022-10-23T21:56:48.478Z,101020.00
2022-10-23T21:59:19.219Z,101052.47
2022-10-23T22:01:47.581Z,101038.63
2022-10-23T22:04:15.772Z,101013.78
2022-10-23T22:06:43.600Z,101001.47
2022-10-23T22:09:13.042Z,100997.34
2022-10-23T22:11:39.683Z,100957.78
2022-10-23T22:14:06.222Z,100941.78
2022-10-23T22:16:32.843Z,100922.34
2022-10-23T22:18:59.260Z,100989.81
2022-10-23T22:21:28.449Z,100991.72
2022-10-23T22:23:57.110Z,100946.34
2022-10-23T22:26:27.515Z,100941.00
2022-10-23T22:28:56.467Z,100984.66
2022-10-23T22:31:25.612Z,100991.16
2022-10-23T22:33:52.982Z,100983.75
2022-10-23T22:36:20.064Z,101005.69
2022-10-23T22:38:46.718Z,100996.19
2022-10-23T22:41:13.296Z,101012.44
2022-10-23T22:43:39.972Z,100994.22
2022-10-23T22:46:10.406Z,100955.25
2022-10-23T22:48:37.273Z,101006.25
2022-10-23T22:51:07.277Z,100996.28
2022-10-23T22:53:35.641Z,100995.34
2022-10-23T22:56:06.553Z,100993.03
2022-10-23T22:58:33.533Z,100988.03
2022-10-23T23:01:25.360Z,100990.53
2022-10-23T23:03:52.697Z,100990.09
2022-10-23T23:06:20.240Z,100965.78
2022-10-23T23:08:47.391Z,100993.09
2022-10-23T23:11:15.731Z,100945.19
2022-10-23T23:13:43.149Z,100982.78
2022-10-23T23:16:18.172Z,100984.97
2022-10-23T23:18:44.708Z,100977.88
2022-10-23T23:21:11.065Z,100977.41
2022-10-23T23:23:37.458Z,100930.31
2022-10-23T23:26:06.631Z,100982.56
2022-10-23T23:28:33.533Z,100978.31
2022-10-23T23:31:13.477Z,100919.84
2022-10-23T23:33:39.913Z,100967.94
2022-10-23T23:36:12.104Z,100961.75
2022-10-23T23:38:39.262Z,100933.22
2022-10-23T23:41:06.961Z,100923.00
2022-10-23T23:43:33.529Z,100976.47
2022-10-23T23:45:59.908Z,100977.94
2022-10-23T23:48:26.399Z,100939.91
2022-10-23T23:50:52.856Z,100992.59
2022-10-23T23:53:19.254Z,100988.59
2022-10-23T23:55:46.688Z,100981.16
2022-10-23T23:58:13.324Z,100978.63
